SLSA/SBL METAR and TAF weather

Enter ICAO airport designator
Station Type Date Time Source
SLSA METAR 2019/08/19 23:00 UTC NOAA

SLSA 192300Z 00000KT 5000 FU NSC 25/23 Q1012


Station Type Date Time Source
SLSA Decoded METAR 2019/08/19 23:00 UTC NOAA

Santa Ana, Bolivia (SLSA) 13-46S 065-26W
Aug 19, 2019 - 07:00 PM EDT / 2019.08.19 2300 UTC
Wind: Calm:0
Visibility: 3 mile(s):0
Weather: smoke
Temperature: 77 F (25 C)
Dew Point: 73 F (23 C)
Relative Humidity: 88%
Pressure (altimeter): 29.88 in. Hg (1012 hPa)
ob: SLSA 192300Z 00000KT 5000 FU NSC 25/23 Q1012
cycle: 23

Station Type Date Time Source
SLSA TAF 2009/01/07 11:00 UTC NOAA

METAR SLSA 071100Z 00000KT 9999 FEW020 BKN080 26/24 Q1009

Example: see airport list